sensor_id;sensor_type;location;lat;lon;timestamp;P1;durP1;ratioP1;P2;durP2;ratioP2
13406;SDS011;6774;48.208;10.766;2022-10-20T00:02:07;6.13;;;5.73;;
13406;SDS011;6774;48.208;10.766;2022-10-20T00:04:34;8.83;;;8.03;;
13406;SDS011;6774;48.208;10.766;2022-10-20T00:07:02;8.23;;;7.53;;
13406;SDS011;6774;48.208;10.766;2022-10-20T00:09:30;8.27;;;7.57;;
13406;SDS011;6774;48.208;10.766;2022-10-20T00:11:59;8.13;;;7.53;;
13406;SDS011;6774;48.208;10.766;2022-10-20T00:14:27;7.97;;;7.37;;
13406;SDS011;6774;48.208;10.766;2022-10-20T00:16:55;8.50;;;7.57;;
13406;SDS011;6774;48.208;10.766;2022-10-20T00:19:25;8.30;;;7.57;;
13406;SDS011;6774;48.208;10.766;2022-10-20T00:21:53;8.70;;;7.80;;
13406;SDS011;6774;48.208;10.766;2022-10-20T00:24:21;7.43;;;6.93;;
13406;SDS011;6774;48.208;10.766;2022-10-20T00:26:49;8.97;;;8.10;;
13406;SDS011;6774;48.208;10.766;2022-10-20T00:29:18;8.10;;;7.40;;
13406;SDS011;6774;48.208;10.766;2022-10-20T00:31:46;8.50;;;7.80;;
13406;SDS011;6774;48.208;10.766;2022-10-20T00:34:14;11.70;;;10.60;;
13406;SDS011;6774;48.208;10.766;2022-10-20T00:36:42;10.53;;;9.63;;
13406;SDS011;6774;48.208;10.766;2022-10-20T00:39:16;10.40;;;9.63;;
13406;SDS011;6774;48.208;10.766;2022-10-20T00:41:44;12.43;;;11.07;;
13406;SDS011;6774;48.208;10.766;2022-10-20T00:47:16;10.20;;;9.23;;
13406;SDS011;6774;48.208;10.766;2022-10-20T00:49:45;10.43;;;9.47;;
13406;SDS011;6774;48.208;10.766;2022-10-20T00:52:15;14.50;;;11.43;;
13406;SDS011;6774;48.208;10.766;2022-10-20T00:54:47;10.77;;;9.90;;
13406;SDS011;6774;48.208;10.766;2022-10-20T00:57:16;13.20;;;10.73;;
13406;SDS011;6774;48.208;10.766;2022-10-20T00:59:44;14.80;;;12.67;;
13406;SDS011;6774;48.208;10.766;2022-10-20T01:02:13;14.00;;;12.70;;
13406;SDS011;6774;48.208;10.766;2022-10-20T01:04:42;17.07;;;13.53;;
13406;SDS011;6774;48.208;10.766;2022-10-20T01:07:11;17.83;;;15.73;;
13406;SDS011;6774;48.208;10.766;2022-10-20T01:09:39;18.43;;;15.13;;
13406;SDS011;6774;48.208;10.766;2022-10-20T01:12:10;22.10;;;16.50;;
13406;SDS011;6774;48.208;10.766;2022-10-20T01:14:49;21.77;;;16.60;;
13406;SDS011;6774;48.208;10.766;2022-10-20T01:17:27;16.47;;;13.63;;
13406;SDS011;6774;48.208;10.766;2022-10-20T01:20:17;16.37;;;14.77;;
13406;SDS011;6774;48.208;10.766;2022-10-20T01:22:59;17.90;;;15.07;;
13406;SDS011;6774;48.208;10.766;2022-10-20T01:25:43;18.67;;;15.83;;
13406;SDS011;6774;48.208;10.766;2022-10-20T01:28:24;17.57;;;15.10;;
13406;SDS011;6774;48.208;10.766;2022-10-20T01:31:00;16.17;;;14.43;;
13406;SDS011;6774;48.208;10.766;2022-10-20T01:33:33;17.67;;;14.97;;
13406;SDS011;6774;48.208;10.766;2022-10-20T01:36:09;21.27;;;19.00;;
13406;SDS011;6774;48.208;10.766;2022-10-20T01:38:46;20.30;;;18.20;;
13406;SDS011;6774;48.208;10.766;2022-10-20T01:41:20;20.80;;;16.00;;
13406;SDS011;6774;48.208;10.766;2022-10-20T01:43:54;20.10;;;16.40;;
13406;SDS011;6774;48.208;10.766;2022-10-20T01:46:23;17.57;;;15.47;;
13406;SDS011;6774;48.208;10.766;2022-10-20T01:48:53;18.43;;;15.93;;
13406;SDS011;6774;48.208;10.766;2022-10-20T01:51:22;19.77;;;16.23;;
13406;SDS011;6774;48.208;10.766;2022-10-20T01:53:50;22.87;;;15.13;;
13406;SDS011;6774;48.208;10.766;2022-10-20T01:56:19;21.40;;;17.07;;
13406;SDS011;6774;48.208;10.766;2022-10-20T01:59:06;23.23;;;17.47;;
13406;SDS011;6774;48.208;10.766;2022-10-20T02:02:01;18.13;;;16.23;;
13406;SDS011;6774;48.208;10.766;2022-10-20T02:04:46;19.43;;;15.17;;
13406;SDS011;6774;48.208;10.766;2022-10-20T02:07:22;17.93;;;15.77;;
13406;SDS011;6774;48.208;10.766;2022-10-20T02:09:54;16.53;;;14.57;;
13406;SDS011;6774;48.208;10.766;2022-10-20T02:12:30;15.77;;;14.10;;
13406;SDS011;6774;48.208;10.766;2022-10-20T02:15:04;18.93;;;17.03;;
13406;SDS011;6774;48.208;10.766;2022-10-20T02:17:33;22.47;;;16.20;;
13406;SDS011;6774;48.208;10.766;2022-10-20T02:20:04;16.87;;;15.20;;
13406;SDS011;6774;48.208;10.766;2022-10-20T02:22:33;16.17;;;14.70;;
13406;SDS011;6774;48.208;10.766;2022-10-20T02:25:02;15.67;;;14.17;;
13406;SDS011;6774;48.208;10.766;2022-10-20T02:27:31;19.37;;;17.37;;
13406;SDS011;6774;48.208;10.766;2022-10-20T02:30:04;16.63;;;14.87;;
13406;SDS011;6774;48.208;10.766;2022-10-20T02:32:34;17.50;;;15.67;;
13406;SDS011;6774;48.208;10.766;2022-10-20T02:35:05;17.87;;;16.00;;
13406;SDS011;6774;48.208;10.766;2022-10-20T02:37:36;21.23;;;16.53;;
13406;SDS011;6774;48.208;10.766;2022-10-20T02:40:05;17.50;;;15.47;;
13406;SDS011;6774;48.208;10.766;2022-10-20T02:42:34;18.17;;;16.37;;
13406;SDS011;6774;48.208;10.766;2022-10-20T02:45:04;17.00;;;15.27;;
13406;SDS011;6774;48.208;10.766;2022-10-20T02:47:33;20.40;;;16.03;;
13406;SDS011;6774;48.208;10.766;2022-10-20T02:50:01;18.50;;;16.80;;
13406;SDS011;6774;48.208;10.766;2022-10-20T02:52:29;15.80;;;14.23;;
13406;SDS011;6774;48.208;10.766;2022-10-20T02:54:57;17.80;;;16.03;;
13406;SDS011;6774;48.208;10.766;2022-10-20T02:57:24;18.27;;;16.30;;
13406;SDS011;6774;48.208;10.766;2022-10-20T02:59:52;17.07;;;15.40;;
13406;SDS011;6774;48.208;10.766;2022-10-20T03:02:22;17.60;;;15.90;;
13406;SDS011;6774;48.208;10.766;2022-10-20T03:04:50;21.47;;;17.83;;
13406;SDS011;6774;48.208;10.766;2022-10-20T03:07:17;15.70;;;14.20;;
13406;SDS011;6774;48.208;10.766;2022-10-20T03:09:45;16.77;;;15.03;;
13406;SDS011;6774;48.208;10.766;2022-10-20T03:12:13;23.30;;;18.23;;
13406;SDS011;6774;48.208;10.766;2022-10-20T03:14:41;19.33;;;16.13;;
13406;SDS011;6774;48.208;10.766;2022-10-20T03:17:09;16.37;;;14.43;;
13406;SDS011;6774;48.208;10.766;2022-10-20T03:19:38;17.37;;;15.70;;
13406;SDS011;6774;48.208;10.766;2022-10-20T03:22:06;18.90;;;15.97;;
13406;SDS011;6774;48.208;10.766;2022-10-20T03:24:34;15.03;;;13.70;;
13406;SDS011;6774;48.208;10.766;2022-10-20T03:27:02;17.13;;;15.33;;
13406;SDS011;6774;48.208;10.766;2022-10-20T03:29:30;17.43;;;15.60;;
13406;SDS011;6774;48.208;10.766;2022-10-20T03:31:58;16.60;;;14.37;;
13406;SDS011;6774;48.208;10.766;2022-10-20T03:34:26;18.13;;;15.67;;
13406;SDS011;6774;48.208;10.766;2022-10-20T03:36:55;19.73;;;16.00;;
13406;SDS011;6774;48.208;10.766;2022-10-20T03:39:23;17.67;;;14.83;;
13406;SDS011;6774;48.208;10.766;2022-10-20T03:41:51;19.73;;;17.77;;
13406;SDS011;6774;48.208;10.766;2022-10-20T03:44:19;15.93;;;14.13;;
13406;SDS011;6774;48.208;10.766;2022-10-20T03:46:47;20.17;;;17.77;;
13406;SDS011;6774;48.208;10.766;2022-10-20T03:49:15;18.67;;;17.07;;
13406;SDS011;6774;48.208;10.766;2022-10-20T03:51:43;18.03;;;15.87;;
13406;SDS011;6774;48.208;10.766;2022-10-20T03:54:12;19.10;;;16.07;;
13406;SDS011;6774;48.208;10.766;2022-10-20T03:56:40;16.67;;;15.00;;
13406;SDS011;6774;48.208;10.766;2022-10-20T03:59:08;18.40;;;16.47;;
13406;SDS011;6774;48.208;10.766;2022-10-20T04:01:37;16.87;;;14.87;;
13406;SDS011;6774;48.208;10.766;2022-10-20T04:04:04;18.07;;;16.17;;
13406;SDS011;6774;48.208;10.766;2022-10-20T04:06:32;23.17;;;18.83;;
13406;SDS011;6774;48.208;10.766;2022-10-20T04:09:00;18.17;;;14.83;;
13406;SDS011;6774;48.208;10.766;2022-10-20T04:11:29;15.83;;;14.20;;
13406;SDS011;6774;48.208;10.766;2022-10-20T04:13:57;18.27;;;16.37;;
13406;SDS011;6774;48.208;10.766;2022-10-20T04:16:25;17.30;;;15.43;;
13406;SDS011;6774;48.208;10.766;2022-10-20T04:18:53;20.13;;;16.80;;
13406;SDS011;6774;48.208;10.766;2022-10-20T04:21:21;18.00;;;16.13;;
13406;SDS011;6774;48.208;10.766;2022-10-20T04:23:50;17.00;;;15.30;;
13406;SDS011;6774;48.208;10.766;2022-10-20T04:26:18;18.27;;;16.37;;
13406;SDS011;6774;48.208;10.766;2022-10-20T04:28:47;15.90;;;14.27;;
13406;SDS011;6774;48.208;10.766;2022-10-20T04:31:15;16.43;;;14.77;;
13406;SDS011;6774;48.208;10.766;2022-10-20T04:33:43;17.37;;;15.80;;
13406;SDS011;6774;48.208;10.766;2022-10-20T04:36:11;17.33;;;15.63;;
13406;SDS011;6774;48.208;10.766;2022-10-20T04:38:39;19.97;;;18.03;;
13406;SDS011;6774;48.208;10.766;2022-10-20T04:41:07;19.10;;;17.07;;
13406;SDS011;6774;48.208;10.766;2022-10-20T04:43:36;17.70;;;15.87;;
13406;SDS011;6774;48.208;10.766;2022-10-20T04:46:05;17.90;;;16.03;;
13406;SDS011;6774;48.208;10.766;2022-10-20T04:48:34;18.73;;;16.83;;
13406;SDS011;6774;48.208;10.766;2022-10-20T04:51:02;16.63;;;14.93;;
13406;SDS011;6774;48.208;10.766;2022-10-20T04:53:32;18.90;;;16.80;;
13406;SDS011;6774;48.208;10.766;2022-10-20T04:56:01;32.83;;;26.27;;
13406;SDS011;6774;48.208;10.766;2022-10-20T04:58:29;30.07;;;26.83;;
13406;SDS011;6774;48.208;10.766;2022-10-20T05:00:59;30.27;;;25.50;;
13406;SDS011;6774;48.208;10.766;2022-10-20T05:03:28;31.30;;;28.07;;
13406;SDS011;6774;48.208;10.766;2022-10-20T05:06:06;29.50;;;24.43;;
13406;SDS011;6774;48.208;10.766;2022-10-20T05:08:35;23.67;;;21.40;;
13406;SDS011;6774;48.208;10.766;2022-10-20T05:11:03;27.10;;;24.47;;
13406;SDS011;6774;48.208;10.766;2022-10-20T05:13:30;21.10;;;19.10;;
13406;SDS011;6774;48.208;10.766;2022-10-20T05:15:58;17.90;;;16.10;;
13406;SDS011;6774;48.208;10.766;2022-10-20T05:18:26;17.27;;;15.70;;
13406;SDS011;6774;48.208;10.766;2022-10-20T05:20:56;17.87;;;15.90;;
13406;SDS011;6774;48.208;10.766;2022-10-20T05:23:35;14.77;;;13.33;;
13406;SDS011;6774;48.208;10.766;2022-10-20T05:26:03;12.87;;;11.67;;
13406;SDS011;6774;48.208;10.766;2022-10-20T05:28:31;12.80;;;11.60;;
13406;SDS011;6774;48.208;10.766;2022-10-20T05:31:00;12.70;;;11.33;;
13406;SDS011;6774;48.208;10.766;2022-10-20T05:33:28;11.73;;;10.67;;
13406;SDS011;6774;48.208;10.766;2022-10-20T05:35:57;10.47;;;9.53;;
13406;SDS011;6774;48.208;10.766;2022-10-20T05:38:26;11.27;;;10.33;;
13406;SDS011;6774;48.208;10.766;2022-10-20T05:40:54;13.50;;;12.40;;
13406;SDS011;6774;48.208;10.766;2022-10-20T05:43:22;9.77;;;8.97;;
13406;SDS011;6774;48.208;10.766;2022-10-20T05:45:52;11.80;;;10.67;;
13406;SDS011;6774;48.208;10.766;2022-10-20T05:48:20;11.03;;;10.03;;
13406;SDS011;6774;48.208;10.766;2022-10-20T05:50:48;11.30;;;9.80;;
13406;SDS011;6774;48.208;10.766;2022-10-20T05:53:17;13.53;;;12.13;;
13406;SDS011;6774;48.208;10.766;2022-10-20T05:55:45;10.63;;;9.63;;
13406;SDS011;6774;48.208;10.766;2022-10-20T05:58:13;10.63;;;9.73;;
13406;SDS011;6774;48.208;10.766;2022-10-20T06:00:47;11.93;;;10.63;;
13406;SDS011;6774;48.208;10.766;2022-10-20T06:03:18;12.33;;;11.13;;
13406;SDS011;6774;48.208;10.766;2022-10-20T06:05:55;14.60;;;12.27;;
13406;SDS011;6774;48.208;10.766;2022-10-20T06:08:27;11.73;;;10.47;;
13406;SDS011;6774;48.208;10.766;2022-10-20T06:10:56;12.33;;;11.07;;
13406;SDS011;6774;48.208;10.766;2022-10-20T06:13:23;10.73;;;9.73;;
13406;SDS011;6774;48.208;10.766;2022-10-20T06:15:51;10.70;;;9.80;;
13406;SDS011;6774;48.208;10.766;2022-10-20T06:18:19;11.13;;;10.07;;
13406;SDS011;6774;48.208;10.766;2022-10-20T06:20:47;10.43;;;9.33;;
13406;SDS011;6774;48.208;10.766;2022-10-20T06:23:15;13.33;;;10.73;;
13406;SDS011;6774;48.208;10.766;2022-10-20T06:25:44;13.33;;;10.00;;
13406;SDS011;6774;48.208;10.766;2022-10-20T06:28:12;13.00;;;11.07;;
13406;SDS011;6774;48.208;10.766;2022-10-20T06:30:40;10.60;;;9.53;;
13406;SDS011;6774;48.208;10.766;2022-10-20T06:33:09;14.77;;;12.23;;
13406;SDS011;6774;48.208;10.766;2022-10-20T06:35:37;12.40;;;11.30;;
13406;SDS011;6774;48.208;10.766;2022-10-20T06:38:05;12.57;;;11.27;;
13406;SDS011;6774;48.208;10.766;2022-10-20T06:40:33;13.03;;;10.57;;
13406;SDS011;6774;48.208;10.766;2022-10-20T06:43:02;11.63;;;10.53;;
13406;SDS011;6774;48.208;10.766;2022-10-20T06:45:30;10.97;;;9.87;;
13406;SDS011;6774;48.208;10.766;2022-10-20T06:47:58;13.63;;;11.80;;
13406;SDS011;6774;48.208;10.766;2022-10-20T06:50:26;12.20;;;11.03;;
13406;SDS011;6774;48.208;10.766;2022-10-20T06:52:54;11.77;;;10.30;;
13406;SDS011;6774;48.208;10.766;2022-10-20T06:55:22;18.07;;;11.77;;
13406;SDS011;6774;48.208;10.766;2022-10-20T06:57:50;10.93;;;9.83;;
13406;SDS011;6774;48.208;10.766;2022-10-20T07:00:19;10.40;;;9.50;;
13406;SDS011;6774;48.208;10.766;2022-10-20T07:02:47;53.33;;;40.43;;
13406;SDS011;6774;48.208;10.766;2022-10-20T07:05:15;41.43;;;30.67;;
13406;SDS011;6774;48.208;10.766;2022-10-20T07:07:43;26.40;;;16.57;;
13406;SDS011;6774;48.208;10.766;2022-10-20T07:10:11;13.90;;;12.67;;
13406;SDS011;6774;48.208;10.766;2022-10-20T07:12:38;16.00;;;14.60;;
13406;SDS011;6774;48.208;10.766;2022-10-20T07:15:07;12.63;;;9.83;;
13406;SDS011;6774;48.208;10.766;2022-10-20T07:17:36;12.33;;;11.17;;
13406;SDS011;6774;48.208;10.766;2022-10-20T07:20:05;11.23;;;10.13;;
13406;SDS011;6774;48.208;10.766;2022-10-20T07:22:33;12.03;;;9.43;;
13406;SDS011;6774;48.208;10.766;2022-10-20T07:25:03;14.47;;;13.37;;
13406;SDS011;6774;48.208;10.766;2022-10-20T07:27:32;10.70;;;9.77;;
13406;SDS011;6774;48.208;10.766;2022-10-20T07:30:00;9.40;;;8.20;;
13406;SDS011;6774;48.208;10.766;2022-10-20T07:32:28;12.63;;;11.33;;
13406;SDS011;6774;48.208;10.766;2022-10-20T07:34:59;12.00;;;10.97;;
13406;SDS011;6774;48.208;10.766;2022-10-20T07:37:26;14.33;;;12.83;;
13406;SDS011;6774;48.208;10.766;2022-10-20T07:39:54;12.57;;;11.53;;
13406;SDS011;6774;48.208;10.766;2022-10-20T07:42:22;13.20;;;11.97;;
13406;SDS011;6774;48.208;10.766;2022-10-20T07:44:50;11.83;;;10.83;;
13406;SDS011;6774;48.208;10.766;2022-10-20T07:47:18;15.93;;;13.83;;
13406;SDS011;6774;48.208;10.766;2022-10-20T07:49:46;14.83;;;13.33;;
13406;SDS011;6774;48.208;10.766;2022-10-20T07:52:15;16.43;;;14.83;;
13406;SDS011;6774;48.208;10.766;2022-10-20T07:54:43;14.13;;;12.90;;
13406;SDS011;6774;48.208;10.766;2022-10-20T07:57:11;14.17;;;12.73;;
13406;SDS011;6774;48.208;10.766;2022-10-20T07:59:39;18.77;;;14.40;;
13406;SDS011;6774;48.208;10.766;2022-10-20T08:02:08;12.13;;;11.03;;
13406;SDS011;6774;48.208;10.766;2022-10-20T08:04:39;13.90;;;12.63;;
13406;SDS011;6774;48.208;10.766;2022-10-20T08:07:09;14.10;;;12.80;;
13406;SDS011;6774;48.208;10.766;2022-10-20T08:09:39;16.97;;;15.03;;
13406;SDS011;6774;48.208;10.766;2022-10-20T08:12:07;13.37;;;11.87;;
13406;SDS011;6774;48.208;10.766;2022-10-20T08:14:35;12.30;;;11.20;;
13406;SDS011;6774;48.208;10.766;2022-10-20T08:17:03;15.67;;;12.87;;
13406;SDS011;6774;48.208;10.766;2022-10-20T08:19:33;13.00;;;11.90;;
13406;SDS011;6774;48.208;10.766;2022-10-20T08:22:24;13.87;;;12.57;;
13406;SDS011;6774;48.208;10.766;2022-10-20T08:24:53;12.60;;;11.47;;
13406;SDS011;6774;48.208;10.766;2022-10-20T08:27:21;15.03;;;13.30;;
13406;SDS011;6774;48.208;10.766;2022-10-20T08:29:49;12.33;;;11.20;;
13406;SDS011;6774;48.208;10.766;2022-10-20T08:32:36;19.27;;;15.77;;
13406;SDS011;6774;48.208;10.766;2022-10-20T08:35:05;13.27;;;12.03;;
13406;SDS011;6774;48.208;10.766;2022-10-20T08:37:33;14.23;;;12.90;;
13406;SDS011;6774;48.208;10.766;2022-10-20T08:40:04;12.77;;;11.77;;
13406;SDS011;6774;48.208;10.766;2022-10-20T08:42:33;15.07;;;13.13;;
13406;SDS011;6774;48.208;10.766;2022-10-20T08:45:06;14.03;;;12.67;;
13406;SDS011;6774;48.208;10.766;2022-10-20T08:47:35;12.77;;;11.53;;
13406;SDS011;6774;48.208;10.766;2022-10-20T08:50:05;15.77;;;14.30;;
13406;SDS011;6774;48.208;10.766;2022-10-20T08:52:35;17.63;;;15.90;;
13406;SDS011;6774;48.208;10.766;2022-10-20T08:55:09;11.90;;;10.67;;
13406;SDS011;6774;48.208;10.766;2022-10-20T08:57:51;15.80;;;13.33;;
13406;SDS011;6774;48.208;10.766;2022-10-20T09:00:23;16.33;;;13.73;;
13406;SDS011;6774;48.208;10.766;2022-10-20T09:02:51;12.17;;;11.03;;
13406;SDS011;6774;48.208;10.766;2022-10-20T09:05:24;13.07;;;11.70;;
13406;SDS011;6774;48.208;10.766;2022-10-20T09:07:56;12.50;;;11.33;;
13406;SDS011;6774;48.208;10.766;2022-10-20T09:10:29;12.00;;;11.00;;
13406;SDS011;6774;48.208;10.766;2022-10-20T09:12:59;13.73;;;12.30;;
13406;SDS011;6774;48.208;10.766;2022-10-20T09:15:28;11.50;;;10.37;;
13406;SDS011;6774;48.208;10.766;2022-10-20T09:17:58;11.33;;;10.30;;
13406;SDS011;6774;48.208;10.766;2022-10-20T09:20:29;12.87;;;11.57;;
13406;SDS011;6774;48.208;10.766;2022-10-20T09:23:00;14.60;;;11.23;;
13406;SDS011;6774;48.208;10.766;2022-10-20T09:25:38;11.27;;;10.17;;
13406;SDS011;6774;48.208;10.766;2022-10-20T09:28:08;10.90;;;9.90;;
13406;SDS011;6774;48.208;10.766;2022-10-20T09:30:46;10.87;;;9.97;;
13406;SDS011;6774;48.208;10.766;2022-10-20T09:33:21;12.40;;;11.17;;
13406;SDS011;6774;48.208;10.766;2022-10-20T09:35:55;11.67;;;10.80;;
13406;SDS011;6774;48.208;10.766;2022-10-20T09:38:28;12.30;;;11.10;;
13406;SDS011;6774;48.208;10.766;2022-10-20T09:41:04;11.10;;;10.10;;
13406;SDS011;6774;48.208;10.766;2022-10-20T09:43:37;11.80;;;10.63;;
13406;SDS011;6774;48.208;10.766;2022-10-20T09:46:08;12.13;;;10.93;;
13406;SDS011;6774;48.208;10.766;2022-10-20T09:48:38;11.57;;;10.40;;
13406;SDS011;6774;48.208;10.766;2022-10-20T09:51:11;12.57;;;11.47;;
13406;SDS011;6774;48.208;10.766;2022-10-20T09:53:47;11.97;;;10.93;;
13406;SDS011;6774;48.208;10.766;2022-10-20T09:56:23;14.33;;;12.70;;
13406;SDS011;6774;48.208;10.766;2022-10-20T09:58:53;11.53;;;10.37;;
13406;SDS011;6774;48.208;10.766;2022-10-20T10:01:22;11.40;;;10.17;;
13406;SDS011;6774;48.208;10.766;2022-10-20T10:03:50;13.40;;;12.07;;
13406;SDS011;6774;48.208;10.766;2022-10-20T10:06:30;13.43;;;12.13;;
13406;SDS011;6774;48.208;10.766;2022-10-20T10:11:58;11.60;;;10.53;;
13406;SDS011;6774;48.208;10.766;2022-10-20T10:14:29;11.23;;;9.87;;
13406;SDS011;6774;48.208;10.766;2022-10-20T10:16:59;10.70;;;9.70;;
13406;SDS011;6774;48.208;10.766;2022-10-20T10:19:31;9.97;;;9.33;;
13406;SDS011;6774;48.208;10.766;2022-10-20T10:22:00;12.97;;;10.60;;
13406;SDS011;6774;48.208;10.766;2022-10-20T10:24:37;15.10;;;10.93;;
13406;SDS011;6774;48.208;10.766;2022-10-20T10:27:19;10.77;;;9.93;;
13406;SDS011;6774;48.208;10.766;2022-10-20T10:29:50;9.53;;;8.73;;
13406;SDS011;6774;48.208;10.766;2022-10-20T10:32:22;11.83;;;10.40;;
13406;SDS011;6774;48.208;10.766;2022-10-20T10:34:58;11.97;;;10.97;;
13406;SDS011;6774;48.208;10.766;2022-10-20T10:37:33;11.17;;;10.20;;
13406;SDS011;6774;48.208;10.766;2022-10-20T10:40:04;10.20;;;9.30;;
13406;SDS011;6774;48.208;10.766;2022-10-20T10:45:48;9.10;;;8.30;;
13406;SDS011;6774;48.208;10.766;2022-10-20T10:48:32;11.07;;;9.97;;
13406;SDS011;6774;48.208;10.766;2022-10-20T10:51:17;11.87;;;10.77;;
13406;SDS011;6774;48.208;10.766;2022-10-20T10:53:54;11.23;;;10.33;;
13406;SDS011;6774;48.208;10.766;2022-10-20T10:56:39;9.30;;;8.50;;
13406;SDS011;6774;48.208;10.766;2022-10-20T10:59:14;9.63;;;8.80;;
13406;SDS011;6774;48.208;10.766;2022-10-20T11:04:47;10.10;;;9.20;;
13406;SDS011;6774;48.208;10.766;2022-10-20T11:07:33;11.43;;;10.33;;
13406;SDS011;6774;48.208;10.766;2022-10-20T11:10:09;11.83;;;10.73;;
13406;SDS011;6774;48.208;10.766;2022-10-20T11:12:48;9.97;;;8.83;;
13406;SDS011;6774;48.208;10.766;2022-10-20T11:15:32;9.77;;;8.87;;
13406;SDS011;6774;48.208;10.766;2022-10-20T11:18:10;11.70;;;10.63;;
13406;SDS011;6774;48.208;10.766;2022-10-20T11:20:47;11.50;;;8.80;;
13406;SDS011;6774;48.208;10.766;2022-10-20T11:23:30;10.87;;;9.97;;
13406;SDS011;6774;48.208;10.766;2022-10-20T11:26:16;8.30;;;7.60;;
13406;SDS011;6774;48.208;10.766;2022-10-20T11:28:54;8.10;;;7.43;;
13406;SDS011;6774;48.208;10.766;2022-10-20T11:31:28;11.90;;;10.57;;
13406;SDS011;6774;48.208;10.766;2022-10-20T11:34:00;12.43;;;11.27;;
13406;SDS011;6774;48.208;10.766;2022-10-20T11:36:33;13.07;;;11.83;;
13406;SDS011;6774;48.208;10.766;2022-10-20T11:39:07;12.67;;;11.23;;
13406;SDS011;6774;48.208;10.766;2022-10-20T11:41:42;15.17;;;13.73;;
13406;SDS011;6774;48.208;10.766;2022-10-20T11:44:15;9.60;;;8.87;;
13406;SDS011;6774;48.208;10.766;2022-10-20T11:46:50;10.43;;;9.43;;
13406;SDS011;6774;48.208;10.766;2022-10-20T11:49:21;14.53;;;9.73;;
13406;SDS011;6774;48.208;10.766;2022-10-20T11:51:58;10.93;;;9.80;;
13406;SDS011;6774;48.208;10.766;2022-10-20T11:54:51;11.23;;;10.23;;
13406;SDS011;6774;48.208;10.766;2022-10-20T11:57:27;14.00;;;12.70;;
13406;SDS011;6774;48.208;10.766;2022-10-20T12:00:16;13.03;;;11.90;;
13406;SDS011;6774;48.208;10.766;2022-10-20T12:05:54;10.73;;;9.77;;
13406;SDS011;6774;48.208;10.766;2022-10-20T12:08:56;13.10;;;11.80;;
13406;SDS011;6774;48.208;10.766;2022-10-20T12:11:40;11.97;;;11.07;;
13406;SDS011;6774;48.208;10.766;2022-10-20T12:14:18;12.60;;;11.50;;
13406;SDS011;6774;48.208;10.766;2022-10-20T12:19:49;12.33;;;10.23;;
13406;SDS011;6774;48.208;10.766;2022-10-20T12:22:37;14.17;;;12.70;;
13406;SDS011;6774;48.208;10.766;2022-10-20T12:25:23;14.37;;;12.87;;
13406;SDS011;6774;48.208;10.766;2022-10-20T12:31:08;11.40;;;10.30;;
13406;SDS011;6774;48.208;10.766;2022-10-20T12:33:37;12.73;;;10.70;;
13406;SDS011;6774;48.208;10.766;2022-10-20T12:39:17;16.53;;;11.97;;
13406;SDS011;6774;48.208;10.766;2022-10-20T12:41:54;16.40;;;13.17;;
13406;SDS011;6774;48.208;10.766;2022-10-20T12:44:27;14.47;;;11.97;;
13406;SDS011;6774;48.208;10.766;2022-10-20T12:47:02;13.53;;;11.57;;
13406;SDS011;6774;48.208;10.766;2022-10-20T12:49:34;12.23;;;10.57;;
13406;SDS011;6774;48.208;10.766;2022-10-20T12:52:06;12.20;;;11.03;;
13406;SDS011;6774;48.208;10.766;2022-10-20T12:54:43;11.80;;;10.50;;
13406;SDS011;6774;48.208;10.766;2022-10-20T12:57:27;9.60;;;8.83;;
13406;SDS011;6774;48.208;10.766;2022-10-20T13:00:01;10.10;;;9.23;;
13406;SDS011;6774;48.208;10.766;2022-10-20T13:02:31;11.17;;;10.20;;
13406;SDS011;6774;48.208;10.766;2022-10-20T13:07:59;9.60;;;8.80;;
13406;SDS011;6774;48.208;10.766;2022-10-20T13:10:31;8.23;;;7.57;;
13406;SDS011;6774;48.208;10.766;2022-10-20T13:16:16;8.90;;;8.23;;
13406;SDS011;6774;48.208;10.766;2022-10-20T13:18:47;12.67;;;11.57;;
13406;SDS011;6774;48.208;10.766;2022-10-20T13:21:22;10.83;;;9.93;;
13406;SDS011;6774;48.208;10.766;2022-10-20T13:23:57;10.90;;;9.90;;
13406;SDS011;6774;48.208;10.766;2022-10-20T13:26:29;12.23;;;10.93;;
13406;SDS011;6774;48.208;10.766;2022-10-20T13:28:59;11.60;;;10.80;;
13406;SDS011;6774;48.208;10.766;2022-10-20T13:31:30;12.97;;;11.80;;
13406;SDS011;6774;48.208;10.766;2022-10-20T13:34:02;12.27;;;11.10;;
13406;SDS011;6774;48.208;10.766;2022-10-20T13:36:43;11.27;;;10.43;;
13406;SDS011;6774;48.208;10.766;2022-10-20T13:39:22;9.97;;;9.07;;
13406;SDS011;6774;48.208;10.766;2022-10-20T13:42:04;11.43;;;10.33;;
13406;SDS011;6774;48.208;10.766;2022-10-20T13:44:43;12.03;;;10.93;;
13406;SDS011;6774;48.208;10.766;2022-10-20T13:47:28;11.40;;;10.50;;
13406;SDS011;6774;48.208;10.766;2022-10-20T13:50:10;10.73;;;9.67;;
13406;SDS011;6774;48.208;10.766;2022-10-20T13:52:41;13.90;;;12.57;;
13406;SDS011;6774;48.208;10.766;2022-10-20T13:55:17;13.47;;;12.17;;
13406;SDS011;6774;48.208;10.766;2022-10-20T13:57:50;18.20;;;14.30;;
13406;SDS011;6774;48.208;10.766;2022-10-20T14:00:22;13.17;;;11.87;;
13406;SDS011;6774;48.208;10.766;2022-10-20T14:02:53;14.10;;;12.90;;
13406;SDS011;6774;48.208;10.766;2022-10-20T14:05:24;12.93;;;10.93;;
13406;SDS011;6774;48.208;10.766;2022-10-20T14:07:53;15.00;;;13.50;;
13406;SDS011;6774;48.208;10.766;2022-10-20T14:10:24;11.53;;;10.37;;
13406;SDS011;6774;48.208;10.766;2022-10-20T14:12:55;11.70;;;10.60;;
13406;SDS011;6774;48.208;10.766;2022-10-20T14:15:25;10.97;;;10.07;;
13406;SDS011;6774;48.208;10.766;2022-10-20T14:17:56;16.10;;;12.13;;
13406;SDS011;6774;48.208;10.766;2022-10-20T14:20:27;12.20;;;11.00;;
13406;SDS011;6774;48.208;10.766;2022-10-20T14:22:56;11.33;;;10.37;;
13406;SDS011;6774;48.208;10.766;2022-10-20T14:25:27;16.83;;;11.70;;
13406;SDS011;6774;48.208;10.766;2022-10-20T14:27:57;12.17;;;11.10;;
13406;SDS011;6774;48.208;10.766;2022-10-20T14:30:29;13.17;;;11.87;;
13406;SDS011;6774;48.208;10.766;2022-10-20T14:33:01;13.53;;;11.40;;
13406;SDS011;6774;48.208;10.766;2022-10-20T14:35:30;11.63;;;10.47;;
13406;SDS011;6774;48.208;10.766;2022-10-20T14:38:05;11.33;;;10.33;;
13406;SDS011;6774;48.208;10.766;2022-10-20T14:40:47;12.57;;;11.40;;
13406;SDS011;6774;48.208;10.766;2022-10-20T14:43:17;15.13;;;13.53;;
13406;SDS011;6774;48.208;10.766;2022-10-20T14:45:50;12.80;;;11.70;;
13406;SDS011;6774;48.208;10.766;2022-10-20T14:48:20;11.30;;;10.23;;
13406;SDS011;6774;48.208;10.766;2022-10-20T14:50:50;12.30;;;11.20;;
13406;SDS011;6774;48.208;10.766;2022-10-20T14:53:30;13.83;;;12.57;;
13406;SDS011;6774;48.208;10.766;2022-10-20T14:56:01;13.60;;;12.30;;
13406;SDS011;6774;48.208;10.766;2022-10-20T14:58:31;12.97;;;11.87;;
13406;SDS011;6774;48.208;10.766;2022-10-20T15:01:18;13.73;;;12.37;;
13406;SDS011;6774;48.208;10.766;2022-10-20T15:04:02;11.10;;;10.13;;
13406;SDS011;6774;48.208;10.766;2022-10-20T15:06:40;12.00;;;11.00;;
13406;SDS011;6774;48.208;10.766;2022-10-20T15:09:14;10.27;;;9.33;;
13406;SDS011;6774;48.208;10.766;2022-10-20T15:11:46;12.80;;;11.57;;
13406;SDS011;6774;48.208;10.766;2022-10-20T15:14:14;13.63;;;12.33;;
13406;SDS011;6774;48.208;10.766;2022-10-20T15:16:44;14.13;;;12.80;;
13406;SDS011;6774;48.208;10.766;2022-10-20T15:19:29;11.73;;;10.73;;
13406;SDS011;6774;48.208;10.766;2022-10-20T15:22:01;14.27;;;13.13;;
13406;SDS011;6774;48.208;10.766;2022-10-20T15:24:36;12.77;;;11.63;;